SIA193 VVNB-WSSS
Flight info
| Callsign | SIA193 |
|---|---|
| Flight time | N/A |
| Altitude | 36000 |
| Route | NAH3D NAH Q1 MAREL/K0854F380 Q1 AC L644 CN/K0852F390 L642 ESPOB/N0461F380 Q801 ESBUM/N0460F390 Q802 ELALO ELALO1B |
| Aircraft | B38M/M-V/N |
Departure
| Time | 2026-05-09 12:28 |
|---|---|
| Airport | Noi Bai International Airport (VVNB) |
Arrival
| Time | N/A |
|---|---|
| Airport | Singapore Changi Airport (WSSS) |
| Time | Latitude | Longitude | Altitude | Speed | Heading |
|---|---|---|---|---|---|
| 2026-05-09 12:08 | 21.21749 | 105.79821 | 51 ft | 0 kts | 200° |
| 2026-05-09 12:18 | 21.21767 | 105.79828 | 50 ft | 4 kts | 199° |
| 2026-05-09 12:18 | 21.21793 | 105.79838 | 50 ft | 4 kts | 199° |
| 2026-05-09 12:19 | 21.21815 | 105.79846 | 47 ft | 3 kts | 199° |
| 2026-05-09 12:19 | 21.21835 | 105.79854 | 49 ft | 3 kts | 204° |
| 2026-05-09 12:19 | 21.21846 | 105.79864 | 50 ft | 2 kts | 274° |
| 2026-05-09 12:19 | 21.21844 | 105.79872 | 49 ft | 0 kts | 289° |
| 2026-05-09 12:24 | 21.21848 | 105.79861 | 47 ft | 3 kts | 289° |
| 2026-05-09 12:24 | 21.21872 | 105.79779 | 51 ft | 22 kts | 287° |
| 2026-05-09 12:24 | 21.21923 | 105.79605 | 48 ft | 26 kts | 288° |
| 2026-05-09 12:24 | 21.21973 | 105.79426 | 51 ft | 12 kts | 286° |
| 2026-05-09 12:25 | 21.21983 | 105.79391 | 46 ft | 6 kts | 287° |
| 2026-05-09 12:25 | 21.22014 | 105.79284 | 48 ft | 23 kts | 287° |
| 2026-05-09 12:25 | 21.22064 | 105.79116 | 51 ft | 25 kts | 288° |
| 2026-05-09 12:25 | 21.22115 | 105.78941 | 52 ft | 25 kts | 287° |
| 2026-05-09 12:26 | 21.22168 | 105.78776 | 49 ft | 13 kts | 304° |
| 2026-05-09 12:26 | 21.22250 | 105.78739 | 49 ft | 14 kts | 326° |
| 2026-05-09 12:26 | 21.22305 | 105.78630 | 49 ft | 21 kts | 309° |
| 2026-05-09 12:26 | 21.22394 | 105.78622 | 53 ft | 21 kts | 21° |
| 2026-05-09 12:27 | 21.22425 | 105.78794 | 47 ft | 22 kts | 108° |
| 2026-05-09 12:27 | 21.22392 | 105.78908 | 52 ft | 34 kts | 107° |
| 2026-05-09 12:27 | 21.22235 | 105.79454 | 48 ft | 118 kts | 107° |
| 2026-05-09 12:27 | 21.21810 | 105.80979 | 201 ft | 191 kts | 105° |
| 2026-05-09 12:28 | 21.21429 | 105.82355 | 1013 ft | 193 kts | 105° |
| 2026-05-09 12:28 | 21.21038 | 105.83745 | 2285 ft | 196 kts | 104° |
| 2026-05-09 12:28 | 21.20643 | 105.85170 | 3474 ft | 204 kts | 105° |
| 2026-05-09 12:28 | 21.20373 | 105.86146 | 4339 ft | 204 kts | 107° |
| 2026-05-09 12:29 | 21.19970 | 105.87595 | 5644 ft | 202 kts | 107° |
| 2026-05-09 12:29 | 21.19567 | 105.89048 | 6879 ft | 206 kts | 108° |
| 2026-05-09 12:29 | 21.19154 | 105.90539 | 8050 ft | 217 kts | 108° |
| 2026-05-09 12:29 | 21.18695 | 105.92196 | 8868 ft | 245 kts | 108° |
| 2026-05-09 12:30 | 21.18189 | 105.94025 | 9694 ft | 271 kts | 108° |
| 2026-05-09 12:30 | 21.17622 | 105.96063 | 10463 ft | 296 kts | 108° |
| 2026-05-09 12:30 | 21.14996 | 105.99658 | 11953 ft | 333 kts | 152° |
| 2026-05-09 12:31 | 21.12746 | 106.00476 | 12723 ft | 351 kts | 174° |
| 2026-05-09 12:31 | 21.07927 | 105.99388 | 14755 ft | 366 kts | 204° |
| 2026-05-09 12:31 | 21.05466 | 105.98586 | 15825 ft | 371 kts | 194° |
| 2026-05-09 12:32 | 21.02931 | 105.98014 | 16945 ft | 373 kts | 192° |
| 2026-05-09 12:32 | 21.00391 | 105.97562 | 18108 ft | 373 kts | 191° |
| 2026-05-09 12:32 | 20.97788 | 105.97176 | 19190 ft | 371 kts | 189° |
| 2026-05-09 12:32 | 20.95254 | 105.97099 | 20241 ft | 370 kts | 174° |
| 2026-05-09 12:33 | 20.92750 | 105.97730 | 21330 ft | 368 kts | 168° |
| 2026-05-09 12:33 | 20.90266 | 105.98371 | 22257 ft | 367 kts | 169° |
| 2026-05-09 12:33 | 20.87792 | 105.99010 | 23208 ft | 365 kts | 168° |
| 2026-05-09 12:33 | 20.85338 | 105.99648 | 24082 ft | 361 kts | 168° |
| 2026-05-09 12:34 | 20.82922 | 106.00278 | 24919 ft | 355 kts | 169° |
| 2026-05-09 12:34 | 20.80540 | 106.00899 | 25788 ft | 347 kts | 169° |
| 2026-05-09 12:34 | 20.78223 | 106.01503 | 26682 ft | 338 kts | 169° |
| 2026-05-09 12:34 | 20.75970 | 106.02091 | 27608 ft | 327 kts | 169° |
| 2026-05-09 12:35 | 20.73818 | 106.02651 | 28493 ft | 317 kts | 169° |
| 2026-05-09 12:35 | 20.71666 | 106.03213 | 29061 ft | 316 kts | 169° |
| 2026-05-09 12:35 | 20.69524 | 106.03771 | 29569 ft | 316 kts | 170° |
| 2026-05-09 12:35 | 20.67393 | 106.04325 | 30091 ft | 315 kts | 170° |
| 2026-05-09 12:36 | 20.65265 | 106.04880 | 30529 ft | 314 kts | 170° |
| 2026-05-09 12:36 | 20.63149 | 106.05431 | 30939 ft | 313 kts | 170° |
| 2026-05-09 12:36 | 20.61019 | 106.05985 | 31208 ft | 318 kts | 170° |
| 2026-05-09 12:36 | 20.58834 | 106.06553 | 31231 ft | 332 kts | 170° |
| 2026-05-09 12:37 | 20.56520 | 106.07155 | 31237 ft | 347 kts | 169° |
| 2026-05-09 12:37 | 20.54157 | 106.07769 | 31215 ft | 362 kts | 169° |
| 2026-05-09 12:37 | 20.51675 | 106.08415 | 31381 ft | 370 kts | 169° |
| 2026-05-09 12:37 | 20.49175 | 106.09064 | 31801 ft | 370 kts | 169° |
| 2026-05-09 12:38 | 20.46683 | 106.09711 | 32274 ft | 369 kts | 169° |
| 2026-05-09 12:38 | 20.44188 | 106.10359 | 32765 ft | 367 kts | 169° |
| 2026-05-09 12:38 | 20.41717 | 106.11000 | 33245 ft | 364 kts | 170° |
| 2026-05-09 12:38 | 20.39271 | 106.11638 | 33748 ft | 360 kts | 169° |
| 2026-05-09 12:39 | 20.36943 | 106.12591 | 34202 ft | 360 kts | 155° |
| 2026-05-09 12:39 | 20.34718 | 106.13795 | 34654 ft | 352 kts | 159° |
| 2026-05-09 12:39 | 20.32511 | 106.14888 | 35104 ft | 346 kts | 159° |
| 2026-05-09 12:39 | 20.30355 | 106.15967 | 35335 ft | 348 kts | 159° |
| 2026-05-09 12:40 | 20.28143 | 106.17072 | 35384 ft | 355 kts | 159° |
| 2026-05-09 12:40 | 20.23543 | 106.19372 | 35366 ft | 374 kts | 158° |
| 2026-05-09 12:41 | 20.18701 | 106.21790 | 35357 ft | 394 kts | 158° |
| 2026-05-09 12:41 | 20.13611 | 106.24332 | 35356 ft | 414 kts | 158° |
| 2026-05-09 12:42 | 20.08312 | 106.26975 | 35628 ft | 426 kts | 158° |
| 2026-05-09 12:42 | 20.05618 | 106.28319 | 35911 ft | 428 kts | 158° |
| 2026-05-09 12:42 | 20.02905 | 106.29670 | 35986 ft | 437 kts | 158° |
| 2026-05-09 12:43 | 19.97255 | 106.32484 | 35973 ft | 457 kts | 158° |
| 2026-05-09 12:43 | 19.91374 | 106.35411 | 35971 ft | 477 kts | 157° |
| 2026-05-09 12:44 | 19.85272 | 106.38446 | 35966 ft | 493 kts | 157° |
| 2026-05-09 12:44 | 19.78963 | 106.41580 | 35965 ft | 503 kts | 157° |
| 2026-05-09 12:45 | 19.72579 | 106.44749 | 35969 ft | 509 kts | 157° |
| 2026-05-09 12:45 | 19.66145 | 106.47941 | 35974 ft | 512 kts | 157° |
| 2026-05-09 12:46 | 19.59670 | 106.51149 | 35979 ft | 514 kts | 157° |
| 2026-05-09 12:46 | 19.53245 | 106.54330 | 35980 ft | 515 kts | 157° |
| 2026-05-09 12:47 | 19.46734 | 106.57550 | 35979 ft | 515 kts | 157° |
| 2026-05-09 12:47 | 19.40232 | 106.60763 | 35978 ft | 515 kts | 157° |
| 2026-05-09 12:48 | 19.33722 | 106.63978 | 35973 ft | 515 kts | 157° |
| 2026-05-09 12:48 | 19.27218 | 106.67186 | 35976 ft | 515 kts | 156° |
| 2026-05-09 12:49 | 19.20763 | 106.70315 | 35972 ft | 514 kts | 158° |
| 2026-05-09 12:49 | 19.14210 | 106.73393 | 35976 ft | 514 kts | 158° |
| 2026-05-09 12:50 | 19.07668 | 106.76459 | 35976 ft | 514 kts | 158° |
| 2026-05-09 12:50 | 19.01135 | 106.79518 | 35978 ft | 514 kts | 158° |
| 2026-05-09 12:51 | 18.94584 | 106.82583 | 35977 ft | 514 kts | 158° |
| 2026-05-09 12:51 | 18.88051 | 106.85638 | 35971 ft | 514 kts | 158° |
| 2026-05-09 12:52 | 18.81506 | 106.88693 | 35974 ft | 514 kts | 158° |
| 2026-05-09 12:52 | 18.74971 | 106.91738 | 35972 ft | 514 kts | 158° |
| 2026-05-09 12:53 | 18.68447 | 106.94777 | 35971 ft | 514 kts | 158° |
| 2026-05-09 12:53 | 18.61918 | 106.97815 | 35970 ft | 514 kts | 158° |
| 2026-05-09 12:54 | 18.55372 | 107.00858 | 35971 ft | 514 kts | 158° |
| 2026-05-09 12:54 | 18.48828 | 107.03898 | 35971 ft | 514 kts | 158° |
| 2026-05-09 12:55 | 18.42280 | 107.06942 | 35967 ft | 514 kts | 158° |
| 2026-05-09 12:55 | 18.35722 | 107.09989 | 35965 ft | 514 kts | 158° |
| 2026-05-09 12:56 | 18.29175 | 107.13029 | 35965 ft | 514 kts | 157° |
| 2026-05-09 12:56 | 18.22653 | 107.16054 | 35966 ft | 514 kts | 157° |
| 2026-05-09 12:57 | 18.16114 | 107.19085 | 35965 ft | 515 kts | 157° |
| 2026-05-09 12:57 | 18.09548 | 107.22126 | 35963 ft | 515 kts | 157° |
| 2026-05-09 12:58 | 18.03007 | 107.25205 | 35961 ft | 515 kts | 156° |
| 2026-05-09 12:58 | 17.96473 | 107.28311 | 35959 ft | 515 kts | 157° |
| 2026-05-09 12:59 | 17.89931 | 107.31417 | 35960 ft | 515 kts | 156° |
| 2026-05-09 12:59 | 17.83387 | 107.34522 | 35962 ft | 516 kts | 156° |
| 2026-05-09 13:00 | 17.76850 | 107.37622 | 35961 ft | 516 kts | 156° |
| 2026-05-09 13:00 | 17.70295 | 107.40728 | 35960 ft | 516 kts | 156° |
| 2026-05-09 13:01 | 17.63745 | 107.43828 | 35958 ft | 516 kts | 156° |
| 2026-05-09 13:01 | 17.57252 | 107.46899 | 35956 ft | 516 kts | 156° |
| 2026-05-09 13:02 | 17.50681 | 107.50005 | 35952 ft | 516 kts | 156° |
| 2026-05-09 13:02 | 17.44125 | 107.53100 | 35954 ft | 516 kts | 156° |
| 2026-05-09 13:03 | 17.37575 | 107.56191 | 35952 ft | 516 kts | 156° |
| 2026-05-09 13:03 | 17.31034 | 107.59274 | 35950 ft | 516 kts | 156° |
| 2026-05-09 13:04 | 17.24468 | 107.62368 | 35949 ft | 516 kts | 156° |
| 2026-05-09 13:04 | 17.17915 | 107.65453 | 35948 ft | 517 kts | 156° |
| 2026-05-09 13:05 | 17.11412 | 107.68539 | 35943 ft | 517 kts | 155° |
| 2026-05-09 13:05 | 17.04892 | 107.71703 | 35941 ft | 517 kts | 155° |
| 2026-05-09 13:06 | 16.98366 | 107.74870 | 35942 ft | 516 kts | 155° |
| 2026-05-09 13:06 | 16.91841 | 107.78034 | 35940 ft | 516 kts | 155° |
| 2026-05-09 13:07 | 16.85315 | 107.81195 | 35940 ft | 516 kts | 155° |
| 2026-05-09 13:07 | 16.78794 | 107.84352 | 35937 ft | 516 kts | 155° |
| 2026-05-09 13:08 | 16.72319 | 107.87485 | 35937 ft | 516 kts | 155° |
| 2026-05-09 13:08 | 16.65804 | 107.90639 | 35939 ft | 516 kts | 155° |
| 2026-05-09 13:09 | 16.59278 | 107.93799 | 35944 ft | 516 kts | 155° |
| 2026-05-09 13:09 | 16.52754 | 107.96955 | 35942 ft | 516 kts | 155° |
| 2026-05-09 13:10 | 16.46242 | 108.00098 | 35945 ft | 516 kts | 155° |
| 2026-05-09 13:10 | 16.39717 | 108.03246 | 35946 ft | 516 kts | 155° |
| 2026-05-09 13:11 | 16.33203 | 108.06386 | 35953 ft | 516 kts | 155° |
| 2026-05-09 13:11 | 16.26697 | 108.09519 | 35959 ft | 516 kts | 155° |
| 2026-05-09 13:12 | 16.20212 | 108.12641 | 35961 ft | 516 kts | 155° |
| 2026-05-09 13:12 | 16.13695 | 108.15775 | 35967 ft | 516 kts | 155° |
| 2026-05-09 13:13 | 16.07158 | 108.18862 | 35958 ft | 516 kts | 160° |
| 2026-05-09 13:13 | 16.03685 | 108.19714 | 35960 ft | 515 kts | 174° |
| 2026-05-09 13:13 | 16.00095 | 108.19717 | 35972 ft | 515 kts | 182° |
| 2026-05-09 13:14 | 15.92926 | 108.19551 | 35967 ft | 515 kts | 181° |
| 2026-05-09 13:16 | 15.64211 | 108.18932 | 35967 ft | 517 kts | 181° |
| 2026-05-09 13:16 | 15.58228 | 108.18803 | 35970 ft | 517 kts | 181° |
| 2026-05-09 13:17 | 15.51049 | 108.18648 | 35970 ft | 518 kts | 181° |
| 2026-05-09 13:17 | 15.43818 | 108.18492 | 35980 ft | 518 kts | 181° |
| 2026-05-09 13:18 | 15.36604 | 108.18337 | 35989 ft | 518 kts | 181° |
| 2026-05-09 13:18 | 15.29405 | 108.18182 | 35997 ft | 518 kts | 181° |
| 2026-05-09 13:19 | 15.22192 | 108.18027 | 36006 ft | 518 kts | 181° |
| 2026-05-09 13:19 | 15.14980 | 108.17872 | 36013 ft | 518 kts | 181° |
| 2026-05-09 13:20 | 15.07820 | 108.17718 | 36021 ft | 518 kts | 181° |
| 2026-05-09 13:20 | 15.00591 | 108.17559 | 36025 ft | 519 kts | 180° |
| 2026-05-09 13:21 | 14.93364 | 108.17399 | 36025 ft | 519 kts | 180° |
| 2026-05-09 13:21 | 14.86195 | 108.17241 | 36021 ft | 519 kts | 180° |
| 2026-05-09 13:22 | 14.78949 | 108.17081 | 36018 ft | 520 kts | 180° |
| 2026-05-09 13:22 | 14.71716 | 108.16921 | 36010 ft | 520 kts | 180° |
| 2026-05-09 13:23 | 14.53616 | 108.16524 | 35992 ft | 520 kts | 180° |
| 2026-05-09 13:24 | 14.46358 | 108.16364 | 35984 ft | 521 kts | 180° |
| 2026-05-09 13:24 | 14.39109 | 108.16204 | 35979 ft | 521 kts | 180° |
| 2026-05-09 13:25 | 14.31883 | 108.16044 | 35976 ft | 520 kts | 180° |
| 2026-05-09 13:26 | 14.21007 | 108.15810 | 35971 ft | 520 kts | 180° |
| 2026-05-09 13:26 | 14.13825 | 108.15656 | 35965 ft | 519 kts | 180° |
| 2026-05-09 13:27 | 14.06587 | 108.15502 | 35964 ft | 519 kts | 180° |
| 2026-05-09 13:27 | 13.99359 | 108.15347 | 35963 ft | 519 kts | 180° |
| 2026-05-09 13:28 | 13.92175 | 108.15189 | 35957 ft | 519 kts | 180° |
| 2026-05-09 13:28 | 13.84946 | 108.15030 | 35947 ft | 520 kts | 180° |
| 2026-05-09 13:29 | 13.77710 | 108.14871 | 35945 ft | 520 kts | 180° |
| 2026-05-09 13:29 | 13.70474 | 108.14713 | 35945 ft | 520 kts | 180° |
| 2026-05-09 13:30 | 13.63239 | 108.14554 | 35936 ft | 520 kts | 180° |
| 2026-05-09 13:30 | 13.56011 | 108.14396 | 35930 ft | 520 kts | 180° |
| 2026-05-09 13:31 | 13.48794 | 108.14238 | 35930 ft | 519 kts | 180° |
| 2026-05-09 13:31 | 13.41563 | 108.14080 | 35929 ft | 519 kts | 180° |
| 2026-05-09 13:32 | 13.34334 | 108.13922 | 35929 ft | 519 kts | 180° |
| 2026-05-09 13:32 | 13.23492 | 108.13663 | 35928 ft | 519 kts | 180° |
| 2026-05-09 13:33 | 13.16327 | 108.13491 | 35930 ft | 518 kts | 180° |
| 2026-05-09 13:33 | 13.09107 | 108.13317 | 35933 ft | 518 kts | 180° |
| 2026-05-09 13:34 | 13.01896 | 108.13144 | 35936 ft | 518 kts | 180° |
| 2026-05-09 13:34 | 12.94753 | 108.12973 | 35936 ft | 518 kts | 180° |
| 2026-05-09 13:35 | 12.87475 | 108.12799 | 35937 ft | 517 kts | 179° |
| 2026-05-09 13:35 | 12.80342 | 108.12628 | 35936 ft | 517 kts | 179° |
| 2026-05-09 13:36 | 12.73094 | 108.12454 | 35938 ft | 516 kts | 179° |
| 2026-05-09 13:36 | 12.65972 | 108.12288 | 35940 ft | 516 kts | 179° |
| 2026-05-09 13:37 | 12.58785 | 108.12143 | 35939 ft | 515 kts | 179° |
| 2026-05-09 13:37 | 12.51638 | 108.12000 | 35941 ft | 515 kts | 179° |
| 2026-05-09 13:38 | 12.44461 | 108.11857 | 35946 ft | 514 kts | 179° |
| 2026-05-09 13:38 | 12.37298 | 108.11714 | 35954 ft | 514 kts | 179° |
| 2026-05-09 13:39 | 12.30151 | 108.11572 | 35954 ft | 513 kts | 179° |
| 2026-05-09 13:39 | 12.23070 | 108.11430 | 35964 ft | 513 kts | 179° |
| 2026-05-09 13:40 | 12.16010 | 108.11289 | 35972 ft | 484 kts | 179° |
| 2026-05-09 13:40 | 12.09364 | 108.11157 | 35970 ft | 478 kts | 179° |
| 2026-05-09 13:41 | 12.02702 | 108.11025 | 35973 ft | 478 kts | 179° |
| 2026-05-09 13:41 | 11.96041 | 108.10888 | 35972 ft | 478 kts | 180° |
| 2026-05-09 13:42 | 11.92751 | 108.10367 | 35971 ft | 482 kts | 195° |
| 2026-05-09 13:42 | 11.89688 | 108.08965 | 35973 ft | 486 kts | 211° |
| 2026-05-09 13:42 | 11.87072 | 108.06781 | 35975 ft | 489 kts | 225° |
| 2026-05-09 13:42 | 11.84699 | 108.04276 | 35967 ft | 489 kts | 222° |
| 2026-05-09 13:43 | 11.79737 | 107.99516 | 35968 ft | 489 kts | 221° |
| 2026-05-09 13:43 | 11.74732 | 107.94785 | 35964 ft | 490 kts | 221° |
| 2026-05-09 13:44 | 11.69731 | 107.90067 | 35963 ft | 490 kts | 221° |
| 2026-05-09 13:44 | 11.64755 | 107.85375 | 35958 ft | 490 kts | 221° |
| 2026-05-09 13:45 | 11.59745 | 107.80653 | 35950 ft | 490 kts | 221° |
| 2026-05-09 13:45 | 11.54735 | 107.75934 | 35941 ft | 490 kts | 221° |
| 2026-05-09 13:46 | 11.49726 | 107.71217 | 35935 ft | 490 kts | 221° |
| 2026-05-09 13:46 | 11.44710 | 107.66497 | 35924 ft | 490 kts | 221° |
| 2026-05-09 13:47 | 11.39700 | 107.61785 | 35915 ft | 490 kts | 221° |
| 2026-05-09 13:47 | 11.34693 | 107.57078 | 35906 ft | 490 kts | 221° |
| 2026-05-09 13:48 | 11.29718 | 107.52405 | 35901 ft | 490 kts | 221° |
| 2026-05-09 13:48 | 11.24714 | 107.47705 | 35896 ft | 489 kts | 221° |
| 2026-05-09 13:49 | 11.19703 | 107.43001 | 35889 ft | 489 kts | 221° |
| 2026-05-09 13:49 | 11.14700 | 107.38307 | 35887 ft | 489 kts | 221° |
| 2026-05-09 13:50 | 11.09683 | 107.33603 | 35882 ft | 489 kts | 221° |
| 2026-05-09 13:50 | 11.04676 | 107.28910 | 35880 ft | 489 kts | 221° |
| 2026-05-09 13:51 | 10.99665 | 107.24215 | 35878 ft | 489 kts | 221° |
| 2026-05-09 13:51 | 10.94547 | 107.19650 | 35872 ft | 487 kts | 212° |
| 2026-05-09 13:52 | 10.91565 | 107.18164 | 35875 ft | 483 kts | 196° |
| 2026-05-09 13:52 | 10.88295 | 107.17380 | 35881 ft | 483 kts | 191° |
| 2026-05-09 13:52 | 10.81762 | 107.15752 | 35876 ft | 483 kts | 192° |
| 2026-05-09 13:53 | 10.75231 | 107.14100 | 35875 ft | 483 kts | 192° |
| 2026-05-09 13:53 | 10.68695 | 107.12447 | 35876 ft | 483 kts | 192° |
| 2026-05-09 13:54 | 10.62172 | 107.10798 | 35875 ft | 483 kts | 192° |
| 2026-05-09 13:54 | 10.55642 | 107.09148 | 35870 ft | 483 kts | 192° |
| 2026-05-09 13:55 | 10.49109 | 107.07497 | 35873 ft | 483 kts | 192° |
| 2026-05-09 13:55 | 10.42588 | 107.05833 | 35872 ft | 483 kts | 192° |
| 2026-05-09 13:56 | 10.36114 | 107.04181 | 35874 ft | 483 kts | 192° |
| 2026-05-09 13:56 | 10.29595 | 107.02517 | 35875 ft | 483 kts | 192° |
| 2026-05-09 13:57 | 10.23073 | 107.00854 | 35874 ft | 483 kts | 192° |
| 2026-05-09 13:57 | 10.16558 | 106.99194 | 35875 ft | 483 kts | 192° |
| 2026-05-09 13:58 | 10.10041 | 106.97532 | 35878 ft | 483 kts | 192° |
| 2026-05-09 13:58 | 10.03523 | 106.95872 | 35878 ft | 483 kts | 192° |
| 2026-05-09 13:59 | 9.97009 | 106.94214 | 35878 ft | 483 kts | 192° |
| 2026-05-09 13:59 | 9.90492 | 106.92555 | 35876 ft | 483 kts | 192° |
| 2026-05-09 14:00 | 9.86172 | 106.91455 | 35874 ft | 483 kts | 192° |
| 2026-05-09 14:00 | 9.77486 | 106.89247 | 35877 ft | 483 kts | 192° |
| 2026-05-09 14:01 | 9.70952 | 106.87586 | 35877 ft | 484 kts | 192° |
| 2026-05-09 14:01 | 9.64416 | 106.85925 | 35879 ft | 484 kts | 193° |
| 2026-05-09 14:02 | 9.57882 | 106.84253 | 35879 ft | 484 kts | 193° |
| 2026-05-09 14:02 | 9.51345 | 106.82579 | 35875 ft | 484 kts | 193° |
| 2026-05-09 14:03 | 9.44802 | 106.80905 | 35871 ft | 485 kts | 193° |
| 2026-05-09 14:03 | 9.38297 | 106.79241 | 35876 ft | 485 kts | 193° |
| 2026-05-09 14:04 | 9.32827 | 106.77842 | 35875 ft | 486 kts | 193° |
| 2026-05-09 14:04 | 9.25196 | 106.75891 | 35877 ft | 486 kts | 193° |
| 2026-05-09 14:05 | 9.19699 | 106.74486 | 35874 ft | 486 kts | 193° |
| 2026-05-09 14:05 | 9.13192 | 106.72824 | 35871 ft | 486 kts | 193° |
| 2026-05-09 14:06 | 9.06636 | 106.71150 | 35869 ft | 486 kts | 193° |
| 2026-05-09 14:06 | 9.00080 | 106.69476 | 35869 ft | 486 kts | 193° |
| 2026-05-09 14:07 | 8.93521 | 106.67803 | 35870 ft | 486 kts | 193° |
| 2026-05-09 14:07 | 8.86964 | 106.66130 | 35870 ft | 486 kts | 193° |
| 2026-05-09 14:08 | 8.80405 | 106.64458 | 35872 ft | 486 kts | 193° |
| 2026-05-09 14:08 | 8.73892 | 106.62730 | 35865 ft | 487 kts | 199° |
| 2026-05-09 14:09 | 8.70878 | 106.61180 | 35876 ft | 487 kts | 213° |
| 2026-05-09 14:09 | 8.68005 | 106.59340 | 35874 ft | 488 kts | 211° |
| 2026-05-09 14:09 | 8.62201 | 106.55759 | 35868 ft | 489 kts | 211° |
| 2026-05-09 14:10 | 8.53491 | 106.50351 | 35868 ft | 490 kts | 211° |
| 2026-05-09 14:11 | 8.47667 | 106.46737 | 35871 ft | 491 kts | 211° |
| 2026-05-09 14:11 | 8.41836 | 106.43120 | 35873 ft | 491 kts | 211° |
| 2026-05-09 14:12 | 8.36061 | 106.39538 | 35873 ft | 491 kts | 211° |
| 2026-05-09 14:12 | 8.30230 | 106.35923 | 35872 ft | 491 kts | 211° |
| 2026-05-09 14:13 | 8.24401 | 106.32311 | 35873 ft | 491 kts | 211° |
| 2026-05-09 14:15 | 8.01098 | 106.17881 | 35868 ft | 492 kts | 211° |
| 2026-05-09 14:15 | 7.95267 | 106.14274 | 35870 ft | 492 kts | 211° |
| 2026-05-09 14:16 | 7.89428 | 106.10663 | 35871 ft | 492 kts | 211° |
| 2026-05-09 14:16 | 7.83590 | 106.07053 | 35870 ft | 492 kts | 211° |
| 2026-05-09 14:17 | 7.77760 | 106.03450 | 35870 ft | 492 kts | 211° |
| 2026-05-09 14:17 | 7.71966 | 105.99870 | 35866 ft | 492 kts | 211° |
| 2026-05-09 14:18 | 7.66114 | 105.96256 | 35869 ft | 492 kts | 211° |
| 2026-05-09 14:18 | 7.60282 | 105.92655 | 35869 ft | 492 kts | 211° |
| 2026-05-09 14:19 | 7.54440 | 105.89049 | 35867 ft | 492 kts | 211° |
| 2026-05-09 14:19 | 7.48627 | 105.85462 | 35868 ft | 493 kts | 211° |
| 2026-05-09 14:20 | 7.42781 | 105.81856 | 35867 ft | 493 kts | 211° |
| 2026-05-09 14:20 | 7.36927 | 105.78246 | 35868 ft | 493 kts | 211° |
| 2026-05-09 14:21 | 7.28143 | 105.72831 | 35867 ft | 493 kts | 211° |
| 2026-05-09 14:21 | 7.22279 | 105.69217 | 35868 ft | 494 kts | 211° |
| 2026-05-09 14:22 | 7.16427 | 105.65613 | 35868 ft | 494 kts | 211° |
| 2026-05-09 14:22 | 7.10600 | 105.62025 | 35867 ft | 494 kts | 211° |
| 2026-05-09 14:23 | 7.04735 | 105.58414 | 35873 ft | 494 kts | 211° |
| 2026-05-09 14:23 | 6.98794 | 105.54906 | 35874 ft | 494 kts | 206° |
| 2026-05-09 14:24 | 6.92671 | 105.51775 | 35873 ft | 494 kts | 206° |
| 2026-05-09 14:24 | 6.86530 | 105.48648 | 35868 ft | 495 kts | 206° |
| 2026-05-09 14:25 | 6.80372 | 105.45514 | 35868 ft | 495 kts | 206° |
| 2026-05-09 14:25 | 6.74277 | 105.42413 | 35869 ft | 495 kts | 206° |
| 2026-05-09 14:26 | 6.68118 | 105.39281 | 35869 ft | 495 kts | 206° |
| 2026-05-09 14:26 | 6.61965 | 105.36152 | 35870 ft | 495 kts | 206° |
| 2026-05-09 14:27 | 6.55806 | 105.33022 | 35870 ft | 496 kts | 206° |
| 2026-05-09 14:27 | 6.49640 | 105.29889 | 35871 ft | 496 kts | 206° |
| 2026-05-09 14:28 | 6.43484 | 105.26761 | 35870 ft | 496 kts | 206° |
| 2026-05-09 14:28 | 6.37310 | 105.23626 | 35872 ft | 496 kts | 206° |
| 2026-05-09 14:29 | 6.31145 | 105.20496 | 35872 ft | 497 kts | 206° |
| 2026-05-09 14:29 | 6.24977 | 105.17365 | 35874 ft | 497 kts | 206° |
| 2026-05-09 14:30 | 6.18837 | 105.14249 | 35872 ft | 497 kts | 206° |
| 2026-05-09 14:30 | 6.12649 | 105.11110 | 35870 ft | 498 kts | 206° |
| 2026-05-09 14:31 | 6.06457 | 105.07969 | 35869 ft | 498 kts | 206° |
| 2026-05-09 14:31 | 6.00267 | 105.04830 | 35870 ft | 498 kts | 206° |
| 2026-05-09 14:32 | 5.94114 | 105.01711 | 35871 ft | 498 kts | 206° |
| 2026-05-09 14:32 | 5.87923 | 104.98573 | 35874 ft | 498 kts | 206° |
| 2026-05-09 14:33 | 5.81721 | 104.95431 | 35873 ft | 498 kts | 206° |
| 2026-05-09 14:33 | 5.75527 | 104.92293 | 35874 ft | 499 kts | 206° |
| 2026-05-09 14:34 | 5.69319 | 104.89149 | 35873 ft | 499 kts | 206° |
| 2026-05-09 14:34 | 5.63124 | 104.86012 | 35870 ft | 498 kts | 206° |
| 2026-05-09 14:35 | 5.56974 | 104.82899 | 35873 ft | 498 kts | 206° |
| 2026-05-09 14:35 | 5.50781 | 104.79765 | 35871 ft | 497 kts | 206° |
| 2026-05-09 14:36 | 5.44593 | 104.76634 | 35872 ft | 497 kts | 206° |
| 2026-05-09 14:36 | 5.38412 | 104.73507 | 35874 ft | 497 kts | 206° |
| 2026-05-09 14:37 | 5.32242 | 104.70387 | 35873 ft | 496 kts | 206° |
| 2026-05-09 14:37 | 5.26113 | 104.67288 | 35873 ft | 496 kts | 206° |
| 2026-05-09 14:38 | 5.19944 | 104.64170 | 35873 ft | 496 kts | 206° |